Time;durP1;ratioP1;P1;durP2;ratioP2;P2;SDS_P1;SDS_P2;PMS_P1;PMS_P2;Temp;Humidity;BMP_temperature;BMP_pressure;BME280_temperature;BME280_humidity;BME280_pressure;Samples;Min_cycle;Max_cycle;Signal;HPM_P1;HPM_P2
2021/09/18 00:03:29;;;;;;;;;;;11.30;99.90;;;10.05;100.00;95612.69;10554927;28;2293;-78
2021/09/18 00:08:32;;;;;;;;;;;11.30;99.90;;;10.08;100.00;95612.16;10540820;28;2234;-79
2021/09/18 00:13:35;;;;;;;;;;;11.30;99.90;;;10.07;100.00;95610.56;10557367;27;2285;-78
2021/09/18 00:18:38;;;;;;;;;;;11.30;99.90;;;10.00;100.00;95616.22;10546123;28;2489;-81
2021/09/18 00:23:41;;;;;;;;;;;11.30;99.90;;;9.94;100.00;95611.94;10541524;28;2227;-79
2021/09/18 00:28:43;;;;;;;;;;;11.30;99.90;;;9.87;100.00;95616.00;10555916;28;2264;-79
2021/09/18 00:33:47;;;;;;;;;;;11.20;99.90;;;9.87;100.00;95616.00;10555162;28;2226;-79
2021/09/18 00:38:49;;;;;;;;;;;11.10;99.90;;;9.88;100.00;95609.53;10547581;28;2253;-79
2021/09/18 00:43:52;;;;;;;;;;;11.10;99.90;;;9.88;100.00;95612.22;10553120;28;2215;-79
2021/09/18 00:48:55;;;;;;;;;;;11.10;99.90;;;9.88;100.00;95612.22;10551163;28;2194;-79
2021/09/18 00:53:58;;;;;;;;;;;11.20;99.90;;;9.86;100.00;95603.63;10567390;28;2484;-79
2021/09/18 00:59:01;;;;;;;;;;;11.10;99.90;;;9.77;100.00;95616.81;10532480;28;2191;-78
2021/09/18 01:04:04;;;;;;;;;;;11.10;99.90;;;9.72;100.00;95608.75;10550225;28;2239;-79
2021/09/18 01:09:07;;;;;;;;;;;11.00;99.90;;;9.74;100.00;95610.13;10568540;28;2471;-78
2021/09/18 01:14:11;;;;;;;;;;;11.00;99.90;;;9.70;100.00;95611.72;10573057;28;2536;-78
2021/09/18 01:19:14;;;;;;;;;;;11.00;99.90;;;9.70;100.00;95605.56;10582898;28;2543;-78
2021/09/18 01:24:17;;;;;;;;;;;11.00;99.90;;;9.57;100.00;95614.97;10552885;28;2180;-78
2021/09/18 01:29:38;;;;;;;;;;;10.90;99.90;;;9.47;100.00;95606.94;10557757;28;2224;-79
2021/09/18 01:34:41;;;;;;;;;;;10.80;99.90;;;9.52;100.00;95616.84;10557170;28;2193;-79
2021/09/18 01:39:47;;;;;;;;;;;10.70;99.90;;;9.90;100.00;95607.38;10553777;28;2252;-79
2021/09/18 01:44:49;;;;;;;;;;;10.80;99.90;;;9.69;100.00;95615.50;10577178;28;2149;-79
2021/09/18 01:49:52;;;;;;;;;;;10.90;99.90;;;9.59;100.00;95607.44;10575160;28;2547;-79
2021/09/18 01:54:55;;;;;;;;;;;10.90;99.90;;;9.55;100.00;95613.66;10563404;28;2199;-80
2021/09/18 01:59:58;;;;;;;;;;;10.80;99.90;;;9.48;100.00;95608.56;10550949;28;2483;-80
2021/09/18 02:05:01;;;;;;;;;;;10.70;99.90;;;9.47;100.00;95609.59;10551466;28;2439;-79
2021/09/18 02:10:04;;;;;;;;;;;10.70;99.90;;;9.48;100.00;95613.94;10563779;28;2158;-80
2021/09/18 02:15:07;;;;;;;;;;;10.70;99.90;;;9.48;100.00;95608.56;10568645;28;2134;-79
2021/09/18 02:20:10;;;;;;;;;;;10.70;99.90;;;9.47;100.00;95609.59;10566816;28;2134;-80
2021/09/18 02:25:13;;;;;;;;;;;10.70;99.90;;;9.46;100.00;95608.00;10556449;28;2290;-80
2021/09/18 02:30:16;;;;;;;;;;;10.70;99.90;;;9.41;100.00;95600.75;10559084;28;2302;-80
2021/09/18 02:35:18;;;;;;;;;;;10.70;99.90;;;9.41;100.00;95608.81;10531263;28;2184;-79
2021/09/18 02:40:21;;;;;;;;;;;10.70;99.90;;;9.40;100.00;95601.03;10564266;28;2511;-79
2021/09/18 02:45:24;;;;;;;;;;;10.60;99.90;;;9.38;100.00;95597.81;10567915;28;2531;-79
2021/09/18 02:50:27;;;;;;;;;;;10.60;99.90;;;9.46;100.00;95599.94;10564327;28;2241;-80
2021/09/18 02:55:30;;;;;;;;;;;10.70;99.90;;;9.37;100.00;95606.94;10571201;28;2245;-79
2021/09/18 03:00:33;;;;;;;;;;;10.60;99.90;;;9.31;100.00;95608.84;10554243;27;2161;-79
2021/09/18 03:05:36;;;;;;;;;;;10.60;99.90;;;9.26;100.00;95605.34;10550620;28;2195;-80
2021/09/18 03:10:39;;;;;;;;;;;10.50;99.90;;;9.22;100.00;95594.34;10535624;28;2141;-79
2021/09/18 03:15:44;;;;;;;;;;;10.50;99.90;;;9.10;100.00;95608.03;10567766;28;2296;-79
2021/09/18 03:20:47;;;;;;;;;;;10.40;99.90;;;9.08;100.00;95604.00;10552325;27;2270;-80
2021/09/18 03:25:50;;;;;;;;;;;10.30;99.90;;;9.02;100.00;95600.50;10557921;27;2176;-80
2021/09/18 03:30:53;;;;;;;;;;;10.30;99.90;;;9.02;100.00;95602.38;10577651;27;2178;-80
2021/09/18 03:35:56;;;;;;;;;;;10.30;99.90;;;8.98;100.00;95604.00;10585735;27;2293;-80
2021/09/18 03:40:58;;;;;;;;;;;10.20;99.90;;;8.94;100.00;95598.38;10569255;28;2261;-80
2021/09/18 03:46:01;;;;;;;;;;;10.20;99.90;;;9.00;100.00;95596.50;10552243;27;2239;-80
2021/09/18 03:51:04;;;;;;;;;;;10.20;99.90;;;9.08;100.00;95595.94;10589113;27;2525;-79
2021/09/18 03:56:07;;;;;;;;;;;10.30;99.90;;;9.15;100.00;95593.81;10608993;27;2134;-79
2021/09/18 04:01:10;;;;;;;;;;;10.30;99.90;;;9.13;100.00;95595.97;10590781;28;2183;-79
2021/09/18 04:06:13;;;;;;;;;;;10.40;99.90;;;9.11;100.00;95590.06;10597100;27;2279;-78
2021/09/18 04:11:16;;;;;;;;;;;10.40;99.90;;;9.08;100.00;95598.63;10603688;27;2162;-78
2021/09/18 04:16:19;;;;;;;;;;;10.30;99.90;;;9.04;100.00;95592.22;10593829;28;2201;-78
2021/09/18 04:21:22;;;;;;;;;;;10.30;99.90;;;9.02;100.00;95600.50;10569901;28;2180;-77
2021/09/18 04:26:25;;;;;;;;;;;10.30;99.90;;;8.98;100.00;95604.81;10564830;27;2187;-79
2021/09/18 04:31:28;;;;;;;;;;;10.30;99.90;;;8.90;100.00;95610.69;10544884;27;2203;-78
2021/09/18 04:36:31;;;;;;;;;;;10.20;99.90;;;8.84;100.00;95615.25;10566316;28;2191;-79
2021/09/18 04:41:34;;;;;;;;;;;10.10;99.90;;;9.07;100.00;95618.47;10570148;28;2594;-78
2021/09/18 04:46:37;;;;;;;;;;;10.10;99.90;;;8.94;100.00;95625.16;10598231;27;2216;-78
2021/09/18 04:51:40;;;;;;;;;;;10.10;99.90;;;9.01;100.00;95612.31;10585187;27;2183;-78
2021/09/18 04:56:43;;;;;;;;;;;10.20;99.90;;;9.12;100.00;95635.38;10609148;27;2146;-79
2021/09/18 05:01:45;;;;;;;;;;;10.30;99.90;;;9.02;100.00;95621.16;10568408;28;2234;-78
2021/09/18 05:06:48;;;;;;;;;;;10.30;99.90;;;9.27;100.00;95615.00;10567329;28;2308;-79
2021/09/18 05:11:52;;;;;;;;;;;10.30;99.90;;;9.27;100.00;95620.34;10582292;28;2254;-79
2021/09/18 05:16:55;;;;;;;;;;;10.30;99.90;;;9.29;100.00;95627.06;10579640;27;2222;-79
2021/09/18 05:21:59;;;;;;;;;;;10.40;99.90;;;9.39;100.00;95623.56;10558591;28;2234;-79
2021/09/18 05:27:01;;;;;;;;;;;10.50;99.90;;;9.53;100.00;95627.31;10548281;28;2472;-79
2021/09/18 05:32:04;;;;;;;;;;;10.50;99.90;;;9.76;100.00;95631.31;10558590;28;2528;-79
2021/09/18 05:37:07;;;;;;;;;;;10.70;99.90;;;10.10;100.00;95636.06;10548823;28;2606;-79
2021/09/18 05:42:10;;;;;;;;;;;10.90;99.90;;;10.21;100.00;95638.44;10544134;27;2533;-80
2021/09/18 05:47:13;;;;;;;;;;;11.10;99.90;;;10.38;100.00;95637.34;10562648;27;2174;-80
2021/09/18 05:52:16;;;;;;;;;;;11.20;99.90;;;10.47;100.00;95649.13;10559395;28;2142;-79
2021/09/18 05:57:19;;;;;;;;;;;11.30;99.90;;;10.64;100.00;95646.88;10539035;28;2174;-80
2021/09/18 06:02:22;;;;;;;;;;;11.40;99.90;;;10.86;100.00;95651.88;10543461;28;2178;-77
2021/09/18 06:07:25;;;;;;;;;;;11.60;99.90;;;11.15;100.00;95651.97;10540907;28;2258;-76
2021/09/18 06:12:28;;;;;;;;;;;11.80;99.90;;;11.37;100.00;95654.22;10540920;28;2144;-77
2021/09/18 06:17:31;;;;;;;;;;;12.00;99.90;;;11.58;100.00;95649.47;10560654;28;2178;-77
2021/09/18 06:22:33;;;;;;;;;;;12.20;99.90;;;11.86;100.00;95655.97;10519281;28;2302;-77
2021/09/18 06:27:37;;;;;;;;;;;12.40;99.90;;;12.04;98.20;95657.16;10535038;28;2158;-77
2021/09/18 06:32:40;;;;;;;;;;;12.60;99.90;;;12.25;97.36;95658.53;10543749;28;2226;-77
2021/09/18 06:37:43;;;;;;;;;;;12.80;99.90;;;12.54;94.84;95660.38;10557609;28;2251;-78
2021/09/18 06:42:46;;;;;;;;;;;13.00;99.90;;;12.87;93.54;95658.59;10567829;28;2275;-77
2021/09/18 06:47:49;;;;;;;;;;;13.30;99.90;;;13.14;91.69;95655.22;10557580;28;2146;-77
2021/09/18 06:52:52;;;;;;;;;;;13.50;99.90;;;13.38;89.54;95653.28;10556350;28;2161;-77
2021/09/18 06:57:56;;;;;;;;;;;13.90;99.90;;;13.62;88.63;95657.78;10548790;28;3294;-77
2021/09/18 07:02:58;;;;;;;;;;;14.10;99.90;;;13.75;88.48;95660.50;10552876;28;2728;-78
2021/09/18 07:08:02;;;;;;;;;;;14.30;99.90;;;14.08;85.31;95649.66;10549227;28;2449;-77
2021/09/18 07:13:05;;;;;;;;;;;14.50;99.90;;;14.25;82.76;95659.88;10549582;28;2499;-76
2021/09/18 07:18:08;;;;;;;;;;;14.70;99.90;;;14.31;83.18;95664.09;10550208;28;2399;-78
2021/09/18 07:23:11;;;;;;;;;;;14.80;99.90;;;14.49;81.97;95657.81;10555186;28;2260;-77
2021/09/18 07:28:14;;;;;;;;;;;15.00;99.90;;;14.58;81.62;95666.84;10567707;28;2183;-77
2021/09/18 07:33:16;;;;;;;;;;;15.10;99.90;;;14.89;81.28;95671.63;10561296;28;2174;-78
2021/09/18 07:38:20;;;;;;;;;;;15.30;99.90;;;15.02;79.24;95673.50;10544093;28;2219;-77
2021/09/18 07:43:22;;;;;;;;;;;15.50;99.90;;;15.86;78.41;95680.25;10565442;28;2225;-78
2021/09/18 07:48:25;;;;;;;;;;;16.00;99.90;;;15.87;77.08;95681.88;10562059;28;2608;-77
2021/09/18 07:53:28;;;;;;;;;;;16.50;99.90;;;15.89;73.00;95676.91;10549224;28;2535;-77
2021/09/18 07:58:31;;;;;;;;;;;16.70;99.90;;;15.64;72.73;95679.13;10557959;28;2453;-77
2021/09/18 08:03:34;;;;;;;;;;;16.50;99.90;;;16.02;73.18;95677.97;10550828;28;2131;-78
2021/09/18 08:08:37;;;;;;;;;;;16.60;99.90;;;16.20;70.62;95675.03;10557347;28;2206;-76
2021/09/18 08:13:40;;;;;;;;;;;16.90;99.90;;;16.15;70.49;95672.44;10554196;28;2181;-77
2021/09/18 08:18:43;;;;;;;;;;;17.10;99.90;;;16.13;71.65;95682.00;10553548;28;2417;-76
2021/09/18 08:23:46;;;;;;;;;;;17.00;99.90;;;16.48;70.76;95670.22;10559769;28;2515;-76
2021/09/18 08:28:48;;;;;;;;;;;17.10;99.90;;;16.54;70.35;95679.03;10524333;28;2485;-77
2021/09/18 08:33:51;;;;;;;;;;;17.20;99.90;;;16.62;70.64;95675.53;10529857;28;2498;-77
2021/09/18 08:38:54;;;;;;;;;;;17.20;99.90;;;16.81;68.97;95674.50;10561763;28;2704;-76
2021/09/18 08:43:57;;;;;;;;;;;17.30;99.90;;;16.85;68.94;95678.19;10568108;28;2612;-76
2021/09/18 08:49:00;;;;;;;;;;;17.40;99.90;;;16.83;66.46;95675.78;10575126;28;2083;-77
2021/09/18 08:54:05;;;;;;;;;;;17.60;99.90;;;16.92;66.33;95673.06;10557020;28;2217;-78
2021/09/18 08:59:08;;;;;;;;;;;17.60;99.90;;;17.33;66.70;95667.25;10572190;28;2121;-77
2021/09/18 09:04:11;;;;;;;;;;;17.80;99.90;;;17.09;66.04;95662.25;10560812;28;2110;-76
2021/09/18 09:09:20;;;;;;;;;;;17.80;99.90;;;17.58;65.16;95659.41;10558906;28;2064;-77
2021/09/18 09:14:23;;;;;;;;;;;18.00;99.90;;;17.44;62.82;95660.38;10547928;28;2185;-77
2021/09/18 09:19:29;;;;;;;;;;;18.20;99.90;;;17.50;63.70;95658.31;10559507;28;2078;-78
2021/09/18 09:24:32;;;;;;;;;;;18.20;99.90;;;17.69;62.65;95653.34;10541370;28;2206;-77
2021/09/18 09:29:35;;;;;;;;;;;18.30;99.90;;;17.48;61.20;95655.09;10553540;27;2197;-78
2021/09/18 09:34:38;;;;;;;;;;;18.20;99.90;;;17.29;62.81;95655.41;10570806;28;1976;-77
2021/09/18 09:39:41;;;;;;;;;;;18.20;99.90;;;17.61;60.25;95645.16;10555234;28;2168;-77
2021/09/18 09:44:44;;;;;;;;;;;18.20;99.90;;;17.75;58.86;95641.19;10567384;28;2000;-77
2021/09/18 09:49:47;;;;;;;;;;;18.40;99.90;;;17.82;56.67;95648.88;10552102;28;2250;-77
2021/09/18 09:54:50;;;;;;;;;;;18.60;99.90;;;17.96;56.90;95646.75;10568486;28;2289;-77
2021/09/18 09:59:53;;;;;;;;;;;18.70;99.90;;;18.07;53.75;95648.00;10552371;28;2223;-77
2021/09/18 10:04:55;;;;;;;;;;;18.80;99.90;;;18.05;54.51;95644.00;10570010;28;2009;-77
2021/09/18 10:09:59;;;;;;;;;;;18.80;99.90;;;18.46;54.07;95642.59;10573183;28;1753;-76
2021/09/18 10:15:02;;;;;;;;;;;18.90;99.90;;;18.37;51.87;95635.25;10562505;28;2040;-78
2021/09/18 10:20:07;;;;;;;;;;;19.00;99.90;;;18.39;50.88;95634.94;10561383;28;1785;-78
2021/09/18 10:25:10;;;;;;;;;;;19.00;99.90;;;18.54;51.13;95636.31;10556123;28;2139;-78
2021/09/18 10:30:13;;;;;;;;;;;19.10;99.90;;;18.41;50.08;95623.72;10583196;28;1827;-77
2021/09/18 10:35:16;;;;;;;;;;;19.10;99.90;;;18.59;49.23;95628.75;10573753;28;2048;-78
2021/09/18 10:40:19;;;;;;;;;;;19.20;99.90;;;18.45;50.00;95619.22;10558714;28;1902;-78
2021/09/18 10:45:22;;;;;;;;;;;19.20;99.90;;;18.75;50.47;95623.56;10563013;28;2008;-78
2021/09/18 10:50:24;;;;;;;;;;;19.30;99.90;;;18.60;49.23;95615.94;10581335;28;2206;-77
2021/09/18 10:55:27;;;;;;;;;;;19.40;99.90;;;18.54;48.01;95617.25;10563991;28;2032;-77
2021/09/18 11:00:33;;;;;;;;;;;19.40;99.90;;;18.14;48.81;95619.50;10573334;27;1706;-76
2021/09/18 11:05:37;;;;;;;;;;;19.10;99.90;;;18.42;45.20;95609.00;10572261;28;2103;-77
2021/09/18 11:10:39;;;;;;;;;;;19.10;99.90;;;18.34;42.62;95611.44;10594821;28;2043;-77
2021/09/18 11:15:43;;;;;;;;;;;19.30;99.90;;;18.51;42.88;95613.28;10547803;27;1974;-76
2021/09/18 11:20:46;;;;;;;;;;;19.30;99.90;;;18.73;43.10;95595.88;10557304;28;2079;-77
2021/09/18 11:25:49;;;;;;;;;;;19.40;99.90;;;18.92;42.66;95600.09;10538207;28;2020;-75
2021/09/18 11:30:52;;;;;;;;;;;19.50;99.90;;;19.03;45.19;95590.41;10561214;28;2147;-75
2021/09/18 11:35:55;;;;;;;;;;;19.80;99.90;;;19.22;45.10;95588.00;10564019;28;1980;-74
2021/09/18 11:40:58;;;;;;;;;;;19.90;99.90;;;19.55;46.19;95598.16;10555893;27;2016;-74
2021/09/18 11:46:01;;;;;;;;;;;20.10;99.90;;;19.29;47.42;95599.19;10563878;27;2127;-75
2021/09/18 11:51:06;;;;;;;;;;;20.20;99.90;;;19.13;48.91;95588.06;10568397;28;2190;-74
2021/09/18 11:56:09;;;;;;;;;;;20.10;99.90;;;19.32;48.46;95587.59;10559339;28;1905;-74
2021/09/18 12:01:12;;;;;;;;;;;20.10;99.90;;;19.11;47.29;95592.25;10558759;28;2063;-74
2021/09/18 12:06:15;;;;;;;;;;;20.00;99.90;;;19.37;47.20;95584.66;10561317;28;1996;-74
2021/09/18 12:11:18;;;;;;;;;;;20.10;99.90;;;19.76;43.70;95573.59;10561870;28;1988;-76
2021/09/18 12:16:21;;;;;;;;;;;20.40;99.90;;;20.20;42.70;95571.97;10558751;28;1997;-75
2021/09/18 12:21:24;;;;;;;;;;;20.80;99.90;;;19.76;47.34;95570.88;10564339;28;2000;-76
2021/09/18 12:26:27;;;;;;;;;;;20.90;99.90;;;19.05;48.46;95569.06;10562018;28;2105;-76
2021/09/18 12:31:30;;;;;;;;;;;20.40;99.90;;;18.99;48.81;95573.91;10566668;28;1818;-76
2021/09/18 12:36:33;;;;;;;;;;;20.00;99.90;;;19.03;47.79;95574.06;10558098;28;2040;-76
2021/09/18 12:41:36;;;;;;;;;;;20.00;99.90;;;18.82;46.67;95566.66;10563474;27;2043;-77
2021/09/18 12:46:39;;;;;;;;;;;19.90;99.90;;;18.85;45.87;95566.00;10559640;28;1698;-77
2021/09/18 12:51:42;;;;;;;;;;;19.80;99.90;;;18.71;44.44;95565.47;10561707;28;2107;-76
2021/09/18 12:56:45;;;;;;;;;;;19.80;99.90;;;18.94;44.81;95565.16;10540449;28;1933;-76
2021/09/18 13:01:48;;;;;;;;;;;19.80;99.90;;;19.14;43.54;95569.78;10558598;28;2043;-76
2021/09/18 13:06:52;;;;;;;;;;;19.90;99.90;;;19.10;41.69;95566.16;10552163;28;2075;-77
2021/09/18 13:11:55;;;;;;;;;;;19.90;99.90;;;19.17;41.51;95558.25;10551484;28;1791;-77
2021/09/18 13:16:59;;;;;;;;;;;19.90;99.90;;;18.72;41.33;95553.44;10559663;28;2039;-77
2021/09/18 13:22:01;;;;;;;;;;;19.90;99.90;;;19.02;43.06;95550.66;10554916;27;2040;-77
2021/09/18 13:27:04;;;;;;;;;;;19.90;99.90;;;18.73;44.41;95556.97;10536499;28;2029;-77
2021/09/18 13:32:07;;;;;;;;;;;19.70;99.90;;;18.97;42.10;95548.94;10561033;28;1956;-77
2021/09/18 13:37:10;;;;;;;;;;;19.70;99.90;;;19.16;42.65;95540.31;10553362;28;2012;-76
2021/09/18 13:42:13;;;;;;;;;;;19.90;99.90;;;19.44;44.82;95541.31;10559222;28;2095;-76
2021/09/18 13:47:16;;;;;;;;;;;20.00;99.90;;;19.77;44.72;95545.19;10556705;28;1912;-76
2021/09/18 13:52:18;;;;;;;;;;;20.30;99.90;;;20.04;41.90;95541.00;10544913;28;2090;-76
2021/09/18 13:57:21;;;;;;;;;;;20.60;99.90;;;19.86;41.55;95530.31;10534463;28;2020;-78
2021/09/18 14:02:24;;;;;;;;;;;20.70;99.90;;;19.52;40.87;95530.66;10560033;28;2005;-77
2021/09/18 14:07:27;;;;;;;;;;;20.50;99.90;;;19.36;37.47;95527.78;10556930;28;2170;-76
2021/09/18 14:12:30;;;;;;;;;;;20.30;99.90;;;19.42;38.83;95521.78;10556830;28;2068;-76
2021/09/18 14:17:33;;;;;;;;;;;20.30;99.90;;;19.59;40.20;95525.47;10554622;28;1978;-78
2021/09/18 14:22:36;;;;;;;;;;;20.30;99.90;;;19.43;42.79;95517.91;10554579;28;1809;-77
2021/09/18 14:27:39;;;;;;;;;;;20.40;99.90;;;19.39;46.69;95525.16;10552619;28;1984;-76
2021/09/18 14:32:42;;;;;;;;;;;20.30;99.90;;;19.26;47.83;95512.63;10561745;28;2044;-76
2021/09/18 14:37:45;;;;;;;;;;;20.20;99.90;;;18.88;49.21;95510.06;10577595;28;2105;-76
2021/09/18 14:42:48;;;;;;;;;;;20.00;99.90;;;18.95;48.64;95510.31;10573343;28;1947;-76
2021/09/18 14:47:50;;;;;;;;;;;19.90;99.90;;;18.79;48.61;95510.16;10560316;28;1836;-77
2021/09/18 14:52:53;;;;;;;;;;;19.80;99.90;;;18.74;49.26;95515.78;10564473;28;1996;-77
2021/09/18 14:58:11;;;;;;;;;;;19.70;99.90;;;18.58;45.60;95504.66;10556181;28;2118;-77
2021/09/18 15:03:14;;;;;;;;;;;19.60;99.90;;;18.41;42.21;95509.44;10562634;28;2116;-76
2021/09/18 15:08:17;;;;;;;;;;;19.40;99.90;;;18.42;41.30;95503.66;10561014;28;2055;-77
2021/09/18 15:13:20;;;;;;;;;;;19.40;99.90;;;18.32;39.54;95496.69;10581915;28;1747;-76
2021/09/18 15:18:23;;;;;;;;;;;19.30;99.90;;;18.26;43.28;95497.19;10569574;28;2186;-78
2021/09/18 15:23:26;;;;;;;;;;;19.20;99.90;;;18.20;44.83;95488.44;10566531;28;1914;-77
2021/09/18 15:28:28;;;;;;;;;;;19.20;99.90;;;18.17;47.66;95488.28;10573582;27;1810;-77
2021/09/18 15:33:31;;;;;;;;;;;19.20;99.90;;;18.14;49.21;95489.75;10568146;28;2040;-76
2021/09/18 15:38:34;;;;;;;;;;;19.10;99.90;;;17.99;49.40;95488.34;10537488;28;1890;-76
2021/09/18 15:43:37;;;;;;;;;;;19.00;99.90;;;17.98;50.30;95480.53;10562069;28;2111;-77
2021/09/18 15:48:40;;;;;;;;;;;19.00;99.90;;;18.04;51.00;95481.94;10555391;28;1981;-76
2021/09/18 15:53:43;;;;;;;;;;;19.00;99.90;;;17.94;50.43;95474.13;10567245;28;2040;-78
2021/09/18 15:58:46;;;;;;;;;;;19.00;99.90;;;17.95;49.94;95475.75;10557187;28;1972;-76
2021/09/18 16:03:49;;;;;;;;;;;18.80;99.90;;;17.77;50.85;95478.56;10563781;28;2021;-76
2021/09/18 16:08:52;;;;;;;;;;;18.90;99.90;;;17.71;51.68;95476.31;10564438;28;2064;-77
2021/09/18 16:13:54;;;;;;;;;;;18.80;99.90;;;17.71;52.12;95479.84;10575398;28;2172;-76
2021/09/18 16:18:57;;;;;;;;;;;18.70;99.90;;;17.71;51.94;95476.31;10568081;28;2214;-77
2021/09/18 16:24:01;;;;;;;;;;;18.70;99.90;;;17.49;52.16;95469.97;10564392;28;2100;-76
2021/09/18 16:29:04;;;;;;;;;;;18.60;99.90;;;17.43;52.77;95476.72;10562677;28;2132;-76
2021/09/18 16:34:07;;;;;;;;;;;18.50;99.90;;;17.39;51.57;95480.41;10569365;28;1937;-76
2021/09/18 16:39:10;;;;;;;;;;;18.40;99.90;;;17.27;50.40;95468.28;10549982;28;2040;-76
2021/09/18 16:44:14;;;;;;;;;;;18.40;99.90;;;17.20;51.83;95473.41;10567508;27;2241;-76
2021/09/18 16:49:17;;;;;;;;;;;18.30;99.90;;;17.02;51.69;95477.28;10535486;28;2014;-77
2021/09/18 16:54:19;;;;;;;;;;;18.20;99.90;;;16.98;52.77;95481.75;10561271;28;2130;-77
2021/09/18 16:59:22;;;;;;;;;;;18.10;99.90;;;16.80;53.87;95477.47;10555081;28;1869;-77
2021/09/18 17:04:25;;;;;;;;;;;17.90;99.90;;;16.67;55.39;95480.00;10560927;28;2071;-77
2021/09/18 17:09:30;;;;;;;;;;;17.80;99.90;;;16.52;57.21;95475.03;10554273;28;2340;-76
2021/09/18 17:14:33;;;;;;;;;;;17.70;99.90;;;16.38;58.27;95479.81;10564571;28;2301;-76
2021/09/18 17:19:36;;;;;;;;;;;17.60;99.90;;;16.12;59.31;95483.28;10537702;28;2219;-76
2021/09/18 17:24:39;;;;;;;;;;;17.40;99.90;;;15.92;61.14;95486.56;10565384;28;1997;-76
2021/09/18 17:29:42;;;;;;;;;;;17.20;99.90;;;15.85;61.51;95488.94;10586842;28;1996;-76
2021/09/18 17:34:45;;;;;;;;;;;17.10;99.90;;;15.99;61.99;95495.03;10591239;27;1901;-76
2021/09/18 17:39:48;;;;;;;;;;;17.10;99.90;;;16.05;64.16;95496.50;10582509;28;1748;-75
2021/09/18 17:44:51;;;;;;;;;;;17.10;99.90;;;16.23;64.42;95489.22;10584317;28;2079;-77
2021/09/18 17:49:54;;;;;;;;;;;17.10;99.90;;;16.19;62.38;95489.03;10547730;28;1988;-76
2021/09/18 17:54:56;;;;;;;;;;;17.20;99.90;;;16.30;65.31;95505.81;10542984;28;2016;-77
2021/09/18 18:00:03;;;;;;;;;;;17.20;99.90;;;15.97;64.20;95500.00;10559405;28;2107;-76
2021/09/18 18:05:06;;;;;;;;;;;17.10;99.90;;;15.75;65.77;95508.19;10565997;28;2274;-77
2021/09/18 18:10:10;;;;;;;;;;;16.90;99.90;;;15.80;66.67;95506.13;10561251;28;2289;-75
2021/09/18 18:15:13;;;;;;;;;;;16.80;99.90;;;15.93;66.39;95515.28;10567580;28;1994;-76
2021/09/18 18:20:16;;;;;;;;;;;16.90;99.90;;;15.83;67.78;95512.81;10566918;28;2310;-77
2021/09/18 18:25:20;;;;;;;;;;;16.90;99.90;;;15.66;68.70;95514.38;10588725;28;2100;-75
2021/09/18 18:30:23;;;;;;;;;;;16.80;99.90;;;15.35;70.87;95519.75;10582895;28;2237;-76
2021/09/18 18:35:26;;;;;;;;;;;16.60;99.90;;;15.28;73.19;95524.00;10566227;28;2012;-77
2021/09/18 18:40:29;;;;;;;;;;;16.40;99.90;;;15.13;74.85;95517.84;10566557;28;2032;-76
2021/09/18 18:45:32;;;;;;;;;;;16.20;99.90;;;15.11;75.48;95527.38;10566136;28;2025;-77
2021/09/18 18:50:35;;;;;;;;;;;16.20;99.90;;;15.04;76.66;95530.53;10563042;28;2032;-77
2021/09/18 18:55:38;;;;;;;;;;;16.10;99.90;;;14.85;78.20;95532.63;10554149;28;1902;-76
2021/09/18 19:00:41;;;;;;;;;;;16.00;99.90;;;14.90;78.29;95535.22;10549880;28;2074;-77
2021/09/18 19:05:44;;;;;;;;;;;15.90;99.90;;;14.96;78.58;95535.88;10565463;28;1954;-76
2021/09/18 19:10:47;;;;;;;;;;;15.90;99.90;;;14.99;78.63;95536.06;10562910;28;2054;-76
2021/09/18 19:15:50;;;;;;;;;;;15.90;99.90;;;14.73;80.37;95535.06;10565052;28;2044;-77
2021/09/18 19:20:53;;;;;;;;;;;15.90;99.90;;;14.68;81.13;95538.66;10565097;28;2031;-78
2021/09/18 19:25:55;;;;;;;;;;;15.80;99.90;;;14.59;82.31;95538.59;10553011;28;2129;-76
2021/09/18 19:30:58;;;;;;;;;;;15.70;99.90;;;14.59;82.35;95538.59;10564260;28;2048;-77
2021/09/18 19:36:01;;;;;;;;;;;15.60;99.90;;;14.84;81.28;95536.44;10569239;28;2110;-76
2021/09/18 19:41:04;;;;;;;;;;;15.70;99.90;;;14.84;81.81;95539.13;10578535;28;1813;-76
2021/09/18 19:46:07;;;;;;;;;;;15.80;99.90;;;14.97;81.41;95540.19;10577686;28;2110;-76
2021/09/18 19:51:10;;;;;;;;;;;15.80;99.90;;;14.85;82.35;95529.91;10573625;28;1834;-76
2021/09/18 19:56:13;;;;;;;;;;;15.90;99.90;;;15.01;81.32;95541.97;10570588;28;2064;-77
2021/09/18 20:01:16;;;;;;;;;;;15.90;99.90;;;14.98;81.95;95539.88;10554437;28;1841;-77
2021/09/18 20:06:19;;;;;;;;;;;15.90;99.90;;;14.88;82.30;95537.41;10562185;28;2024;-77
2021/09/18 20:11:22;;;;;;;;;;;16.00;99.90;;;14.91;81.90;95536.00;10557711;28;2083;-77
2021/09/18 20:16:25;;;;;;;;;;;15.90;99.90;;;14.62;83.30;95534.47;10577445;28;2277;-76
2021/09/18 20:21:27;;;;;;;;;;;15.80;99.90;;;14.52;83.80;95523.91;10557533;28;2047;-77
2021/09/18 20:26:31;;;;;;;;;;;15.70;99.90;;;14.53;84.25;95526.28;10549995;28;2028;-76
2021/09/18 20:31:34;;;;;;;;;;;15.60;99.90;;;14.59;84.21;95530.50;10560958;28;1810;-77
2021/09/18 20:36:36;;;;;;;;;;;15.60;99.90;;;14.65;84.04;95524.97;10555535;28;2108;-76
2021/09/18 20:41:43;;;;;;;;;;;15.60;99.90;;;14.38;84.96;95523.91;10562266;28;1992;-76
2021/09/18 20:46:45;;;;;;;;;;;15.60;99.90;;;14.18;86.85;95527.81;10563765;27;1802;-76
2021/09/18 20:51:48;;;;;;;;;;;15.40;99.90;;;14.18;87.08;95524.31;10567132;28;1996;-77
2021/09/18 20:56:51;;;;;;;;;;;15.20;99.90;;;14.17;87.46;95525.41;10559197;28;1978;-77
2021/09/18 21:07:16;;;;;;;;;;;15.20;99.90;;;14.16;87.63;95521.13;10543692;28;2035;-76
2021/09/18 21:12:18;;;;;;;;;;;15.20;99.90;;;14.15;87.88;95511.41;10554003;28;2005;-76
2021/09/18 21:17:22;;;;;;;;;;;15.10;99.90;;;14.21;87.62;95502.09;10558080;28;1985;-77
2021/09/18 21:22:24;;;;;;;;;;;15.20;99.90;;;14.16;87.79;95515.72;10535030;28;1990;-76
2021/09/18 21:27:27;;;;;;;;;;;15.20;99.90;;;14.13;88.44;95509.03;10536219;28;2062;-75
2021/09/18 21:32:30;;;;;;;;;;;15.20;99.90;;;14.06;88.65;95506.72;10547549;28;2060;-74
2021/09/18 21:37:33;;;;;;;;;;;15.10;99.90;;;13.93;89.55;95504.00;10550818;28;1906;-75
2021/09/18 21:42:36;;;;;;;;;;;15.00;99.90;;;14.00;89.38;95502.53;10557424;28;1942;-73
2021/09/18 21:47:56;;;;;;;;;;;15.00;99.90;;;14.01;89.01;95493.31;10544028;28;2093;-75
2021/09/18 21:52:59;;;;;;;;;;;15.00;99.90;;;14.10;88.61;95492.59;10565548;27;1988;-75
2021/09/18 21:58:02;;;;;;;;;;;15.00;99.90;;;13.91;89.99;95493.50;10563242;28;1950;-75
2021/09/18 22:03:04;;;;;;;;;;;15.00;99.90;;;13.81;90.63;95496.44;10563665;28;2164;-75
2021/09/18 22:08:08;;;;;;;;;;;14.90;99.90;;;13.71;90.99;95489.31;10550763;28;2036;-75
2021/09/18 22:13:10;;;;;;;;;;;14.80;99.90;;;13.77;91.16;95487.31;10557017;28;1960;-75
2021/09/18 22:18:15;;;;;;;;;;;14.80;99.90;;;13.67;92.00;95482.09;10552422;28;2052;-74
2021/09/18 22:23:18;;;;;;;;;;;14.60;99.90;;;13.72;91.98;95482.00;10532775;28;2035;-75
2021/09/18 22:28:20;;;;;;;;;;;14.70;99.90;;;13.70;91.03;95466.09;10557832;28;2102;-75
2021/09/18 22:33:23;;;;;;;;;;;14.70;99.90;;;13.67;91.69;95476.69;10556370;28;1928;-75
2021/09/18 22:38:26;;;;;;;;;;;14.60;99.90;;;13.58;92.41;95475.81;10554284;28;1985;-74
2021/09/18 22:43:29;;;;;;;;;;;14.60;99.90;;;13.59;91.75;95470.09;10536338;28;1784;-74
2021/09/18 22:48:32;;;;;;;;;;;14.60;99.90;;;13.56;92.06;95464.53;10559688;28;2055;-74
2021/09/18 22:53:35;;;;;;;;;;;14.60;99.90;;;13.41;92.27;95469.09;10552498;28;2298;-73
2021/09/18 22:58:38;;;;;;;;;;;14.50;99.90;;;13.48;92.42;95455.19;10545816;28;1977;-74
2021/09/18 23:03:40;;;;;;;;;;;14.50;99.90;;;13.47;92.20;95467.09;10570943;28;1896;-73
2021/09/18 23:08:43;;;;;;;;;;;14.50;99.90;;;13.46;92.35;95468.19;10555093;28;2059;-73
2021/09/18 23:13:46;;;;;;;;;;;14.50;99.90;;;13.36;92.87;95458.41;10548162;28;1928;-75
2021/09/18 23:18:49;;;;;;;;;;;14.40;99.90;;;13.35;92.82;95458.69;10537302;28;1913;-74